sensor_id;sensor_type;location;lat;lon;timestamp;temperature;humidity
70706;DHT22;59320;52.316;10.870;2023-05-02T00:01:24;14.60;70.70
70706;DHT22;59320;52.316;10.870;2023-05-02T00:03:51;14.60;70.50
70706;DHT22;59320;52.316;10.870;2023-05-02T00:06:18;14.60;70.50
70706;DHT22;59320;52.316;10.870;2023-05-02T00:08:47;14.70;70.10
70706;DHT22;59320;52.316;10.870;2023-05-02T00:11:14;14.70;70.10
70706;DHT22;59320;52.316;10.870;2023-05-02T00:13:41;14.70;69.70
70706;DHT22;59320;52.316;10.870;2023-05-02T00:16:09;14.70;69.80
70706;DHT22;59320;52.316;10.870;2023-05-02T00:18:38;14.70;69.70
70706;DHT22;59320;52.316;10.870;2023-05-02T00:21:05;14.70;69.90
70706;DHT22;59320;52.316;10.870;2023-05-02T00:23:32;14.60;70.50
70706;DHT22;59320;52.316;10.870;2023-05-02T00:25:59;14.60;70.60
70706;DHT22;59320;52.316;10.870;2023-05-02T00:28:26;14.60;70.70
70706;DHT22;59320;52.316;10.870;2023-05-02T00:30:53;14.50;71.50
70706;DHT22;59320;52.316;10.870;2023-05-02T00:33:20;14.60;70.70
70706;DHT22;59320;52.316;10.870;2023-05-02T00:35:48;14.50;70.40
70706;DHT22;59320;52.316;10.870;2023-05-02T00:38:16;14.60;70.10
70706;DHT22;59320;52.316;10.870;2023-05-02T00:40:43;14.60;70.50
70706;DHT22;59320;52.316;10.870;2023-05-02T00:43:11;14.60;70.50
70706;DHT22;59320;52.316;10.870;2023-05-02T00:45:38;14.60;70.80
70706;DHT22;59320;52.316;10.870;2023-05-02T00:48:06;14.60;70.70
70706;DHT22;59320;52.316;10.870;2023-05-02T00:50:36;14.50;70.80
70706;DHT22;59320;52.316;10.870;2023-05-02T00:53:05;14.40;70.80
70706;DHT22;59320;52.316;10.870;2023-05-02T00:55:32;14.50;71.40
70706;DHT22;59320;52.316;10.870;2023-05-02T00:58:00;14.40;70.70
70706;DHT22;59320;52.316;10.870;2023-05-02T01:00:35;14.50;70.80
70706;DHT22;59320;52.316;10.870;2023-05-02T01:03:11;14.40;70.90
70706;DHT22;59320;52.316;10.870;2023-05-02T01:05:48;14.50;71.00
70706;DHT22;59320;52.316;10.870;2023-05-02T01:08:24;14.50;71.20
70706;DHT22;59320;52.316;10.870;2023-05-02T01:11:05;14.40;71.90
70706;DHT22;59320;52.316;10.870;2023-05-02T01:13:38;14.40;71.80
70706;DHT22;59320;52.316;10.870;2023-05-02T01:16:06;14.40;71.80
70706;DHT22;59320;52.316;10.870;2023-05-02T01:18:40;14.40;71.70
70706;DHT22;59320;52.316;10.870;2023-05-02T01:21:09;14.40;72.20
70706;DHT22;59320;52.316;10.870;2023-05-02T01:23:48;14.40;72.60
70706;DHT22;59320;52.316;10.870;2023-05-02T01:26:25;14.20;72.90
70706;DHT22;59320;52.316;10.870;2023-05-02T01:28:58;14.30;73.00
70706;DHT22;59320;52.316;10.870;2023-05-02T01:31:27;14.20;72.90
70706;DHT22;59320;52.316;10.870;2023-05-02T01:33:58;14.10;74.80
70706;DHT22;59320;52.316;10.870;2023-05-02T01:36:28;14.10;74.00
70706;DHT22;59320;52.316;10.870;2023-05-02T01:38:56;14.00;74.10
70706;DHT22;59320;52.316;10.870;2023-05-02T01:41:25;14.10;74.70
70706;DHT22;59320;52.316;10.870;2023-05-02T01:43:53;14.00;75.40
70706;DHT22;59320;52.316;10.870;2023-05-02T01:46:24;14.00;74.60
70706;DHT22;59320;52.316;10.870;2023-05-02T01:48:52;14.00;75.40
70706;DHT22;59320;52.316;10.870;2023-05-02T01:51:20;14.00;76.10
70706;DHT22;59320;52.316;10.870;2023-05-02T01:53:49;13.90;76.80
70706;DHT22;59320;52.316;10.870;2023-05-02T01:56:18;13.80;77.30
70706;DHT22;59320;52.316;10.870;2023-05-02T01:58:46;13.80;77.60
70706;DHT22;59320;52.316;10.870;2023-05-02T02:01:15;13.70;78.30
70706;DHT22;59320;52.316;10.870;2023-05-02T02:03:46;13.60;78.40
70706;DHT22;59320;52.316;10.870;2023-05-02T02:06:13;13.60;79.20
70706;DHT22;59320;52.316;10.870;2023-05-02T02:08:42;13.60;78.60
70706;DHT22;59320;52.316;10.870;2023-05-02T02:11:12;13.60;79.60
70706;DHT22;59320;52.316;10.870;2023-05-02T02:13:44;13.60;78.50
70706;DHT22;59320;52.316;10.870;2023-05-02T02:16:20;13.60;78.50
70706;DHT22;59320;52.316;10.870;2023-05-02T02:18:52;13.60;78.10
70706;DHT22;59320;52.316;10.870;2023-05-02T02:21:21;13.60;77.90
70706;DHT22;59320;52.316;10.870;2023-05-02T02:23:50;13.50;78.20
70706;DHT22;59320;52.316;10.870;2023-05-02T02:26:20;13.50;78.30
70706;DHT22;59320;52.316;10.870;2023-05-02T02:28:48;13.40;78.60
70706;DHT22;59320;52.316;10.870;2023-05-02T02:31:15;13.40;78.80
70706;DHT22;59320;52.316;10.870;2023-05-02T02:33:42;13.50;77.90
70706;DHT22;59320;52.316;10.870;2023-05-02T02:36:14;13.60;78.20
70706;DHT22;59320;52.316;10.870;2023-05-02T02:38:47;13.60;77.80
70706;DHT22;59320;52.316;10.870;2023-05-02T02:41:19;13.70;77.90
70706;DHT22;59320;52.316;10.870;2023-05-02T02:43:56;13.50;78.60
70706;DHT22;59320;52.316;10.870;2023-05-02T02:46:32;13.60;78.80
70706;DHT22;59320;52.316;10.870;2023-05-02T02:49:14;13.60;78.30
70706;DHT22;59320;52.316;10.870;2023-05-02T02:51:52;13.60;79.30
70706;DHT22;59320;52.316;10.870;2023-05-02T02:54:26;13.60;79.60
70706;DHT22;59320;52.316;10.870;2023-05-02T02:57:00;13.60;78.30
70706;DHT22;59320;52.316;10.870;2023-05-02T02:59:31;13.70;78.30
70706;DHT22;59320;52.316;10.870;2023-05-02T03:02:03;13.60;79.30
70706;DHT22;59320;52.316;10.870;2023-05-02T03:04:33;13.50;79.50
70706;DHT22;59320;52.316;10.870;2023-05-02T03:07:02;13.40;80.50
70706;DHT22;59320;52.316;10.870;2023-05-02T03:09:39;13.40;80.00
70706;DHT22;59320;52.316;10.870;2023-05-02T03:12:07;13.40;81.10
70706;DHT22;59320;52.316;10.870;2023-05-02T03:14:38;13.20;81.10
70706;DHT22;59320;52.316;10.870;2023-05-02T03:17:05;13.10;81.70
70706;DHT22;59320;52.316;10.870;2023-05-02T03:19:34;13.00;82.10
70706;DHT22;59320;52.316;10.870;2023-05-02T03:22:03;13.00;82.80
70706;DHT22;59320;52.316;10.870;2023-05-02T03:24:32;13.00;82.60
70706;DHT22;59320;52.316;10.870;2023-05-02T03:26:59;13.00;82.80
70706;DHT22;59320;52.316;10.870;2023-05-02T03:29:32;13.00;82.70
70706;DHT22;59320;52.316;10.870;2023-05-02T03:31:59;13.00;82.80
70706;DHT22;59320;52.316;10.870;2023-05-02T03:34:26;12.90;83.30
70706;DHT22;59320;52.316;10.870;2023-05-02T03:36:54;12.80;83.10
70706;DHT22;59320;52.316;10.870;2023-05-02T03:39:22;12.80;83.20
70706;DHT22;59320;52.316;10.870;2023-05-02T03:41:50;12.80;82.60
70706;DHT22;59320;52.316;10.870;2023-05-02T03:44:20;12.90;81.80
70706;DHT22;59320;52.316;10.870;2023-05-02T03:46:47;12.70;83.00
70706;DHT22;59320;52.316;10.870;2023-05-02T03:49:15;12.70;83.00
70706;DHT22;59320;52.316;10.870;2023-05-02T03:51:44;12.60;83.20
70706;DHT22;59320;52.316;10.870;2023-05-02T03:54:13;12.60;83.30
70706;DHT22;59320;52.316;10.870;2023-05-02T03:56:42;12.50;83.30
70706;DHT22;59320;52.316;10.870;2023-05-02T03:59:19;12.60;83.10
70706;DHT22;59320;52.316;10.870;2023-05-02T04:01:48;12.60;83.00
70706;DHT22;59320;52.316;10.870;2023-05-02T04:04:16;12.60;83.40
70706;DHT22;59320;52.316;10.870;2023-05-02T04:06:50;12.40;85.40
70706;DHT22;59320;52.316;10.870;2023-05-02T04:09:17;12.30;85.80
70706;DHT22;59320;52.316;10.870;2023-05-02T04:11:55;12.30;87.00
70706;DHT22;59320;52.316;10.870;2023-05-02T04:14:22;12.30;87.10
70706;DHT22;59320;52.316;10.870;2023-05-02T04:16:52;12.20;89.30
70706;DHT22;59320;52.316;10.870;2023-05-02T04:19:48;12.10;90.30
70706;DHT22;59320;52.316;10.870;2023-05-02T04:22:17;12.10;90.80
70706;DHT22;59320;52.316;10.870;2023-05-02T04:24:50;12.10;90.90
70706;DHT22;59320;52.316;10.870;2023-05-02T04:27:19;12.00;91.30
70706;DHT22;59320;52.316;10.870;2023-05-02T04:29:47;12.10;91.10
70706;DHT22;59320;52.316;10.870;2023-05-02T04:32:15;12.30;91.00
70706;DHT22;59320;52.316;10.870;2023-05-02T04:34:43;12.20;91.40
70706;DHT22;59320;52.316;10.870;2023-05-02T04:37:10;12.30;91.70
70706;DHT22;59320;52.316;10.870;2023-05-02T04:39:37;12.40;91.90
70706;DHT22;59320;52.316;10.870;2023-05-02T04:42:10;12.40;92.20
70706;DHT22;59320;52.316;10.870;2023-05-02T04:44:47;12.40;92.20
70706;DHT22;59320;52.316;10.870;2023-05-02T04:47:15;12.40;92.60
70706;DHT22;59320;52.316;10.870;2023-05-02T04:49:44;12.40;92.40
70706;DHT22;59320;52.316;10.870;2023-05-02T04:52:11;12.60;92.50
70706;DHT22;59320;52.316;10.870;2023-05-02T04:54:38;12.60;92.80
70706;DHT22;59320;52.316;10.870;2023-05-02T04:57:05;12.70;92.20
70706;DHT22;59320;52.316;10.870;2023-05-02T04:59:37;12.80;92.30
70706;DHT22;59320;52.316;10.870;2023-05-02T05:02:06;12.80;92.60
70706;DHT22;59320;52.316;10.870;2023-05-02T05:04:35;12.80;92.50
70706;DHT22;59320;52.316;10.870;2023-05-02T05:07:02;12.90;92.20
70706;DHT22;59320;52.316;10.870;2023-05-02T05:09:30;13.00;92.30
70706;DHT22;59320;52.316;10.870;2023-05-02T05:11:57;12.90;92.60
70706;DHT22;59320;52.316;10.870;2023-05-02T05:14:24;12.90;92.50
70706;DHT22;59320;52.316;10.870;2023-05-02T05:16:53;12.90;92.70
70706;DHT22;59320;52.316;10.870;2023-05-02T05:19:23;12.90;92.70
70706;DHT22;59320;52.316;10.870;2023-05-02T05:21:51;12.80;92.80
70706;DHT22;59320;52.316;10.870;2023-05-02T05:24:19;12.90;92.50
70706;DHT22;59320;52.316;10.870;2023-05-02T05:26:47;13.00;92.70
70706;DHT22;59320;52.316;10.870;2023-05-02T05:29:14;13.10;92.10
70706;DHT22;59320;52.316;10.870;2023-05-02T05:31:43;13.10;92.20
70706;DHT22;59320;52.316;10.870;2023-05-02T05:34:13;13.10;92.20
70706;DHT22;59320;52.316;10.870;2023-05-02T05:36:42;13.10;92.50
70706;DHT22;59320;52.316;10.870;2023-05-02T05:39:09;13.00;92.70
70706;DHT22;59320;52.316;10.870;2023-05-02T05:41:38;13.10;92.90
70706;DHT22;59320;52.316;10.870;2023-05-02T05:44:08;13.00;93.20
70706;DHT22;59320;52.316;10.870;2023-05-02T05:46:36;13.00;93.10
70706;DHT22;59320;52.316;10.870;2023-05-02T05:49:05;13.10;93.20
70706;DHT22;59320;52.316;10.870;2023-05-02T05:51:34;13.10;93.10
70706;DHT22;59320;52.316;10.870;2023-05-02T05:54:03;13.10;93.70
70706;DHT22;59320;52.316;10.870;2023-05-02T05:56:30;13.00;93.60
70706;DHT22;59320;52.316;10.870;2023-05-02T05:59:11;13.10;93.50
70706;DHT22;59320;52.316;10.870;2023-05-02T06:01:38;13.10;94.10
70706;DHT22;59320;52.316;10.870;2023-05-02T06:04:05;13.00;94.10
70706;DHT22;59320;52.316;10.870;2023-05-02T06:06:36;13.00;94.20
70706;DHT22;59320;52.316;10.870;2023-05-02T06:09:04;13.00;94.10
70706;DHT22;59320;52.316;10.870;2023-05-02T06:11:32;13.10;94.20
70706;DHT22;59320;52.316;10.870;2023-05-02T06:14:00;13.10;94.90
70706;DHT22;59320;52.316;10.870;2023-05-02T06:16:27;12.90;96.30
70706;DHT22;59320;52.316;10.870;2023-05-02T06:18:54;12.90;97.20
70706;DHT22;59320;52.316;10.870;2023-05-02T06:21:21;12.70;98.00
70706;DHT22;59320;52.316;10.870;2023-05-02T06:23:48;12.70;98.50
70706;DHT22;59320;52.316;10.870;2023-05-02T06:26:16;12.60;99.20
70706;DHT22;59320;52.316;10.870;2023-05-02T06:28:43;12.30;99.90
70706;DHT22;59320;52.316;10.870;2023-05-02T06:31:10;12.30;99.90
70706;DHT22;59320;52.316;10.870;2023-05-02T06:33:37;12.50;99.90
70706;DHT22;59320;52.316;10.870;2023-05-02T06:36:05;12.30;99.90
70706;DHT22;59320;52.316;10.870;2023-05-02T06:38:32;12.30;99.90
70706;DHT22;59320;52.316;10.870;2023-05-02T06:40:59;12.20;99.90
70706;DHT22;59320;52.316;10.870;2023-05-02T06:43:28;12.10;99.90
70706;DHT22;59320;52.316;10.870;2023-05-02T06:45:55;12.00;99.90
70706;DHT22;59320;52.316;10.870;2023-05-02T06:48:23;12.00;99.90
70706;DHT22;59320;52.316;10.870;2023-05-02T06:50:51;11.90;99.90
70706;DHT22;59320;52.316;10.870;2023-05-02T06:53:18;11.80;99.90
70706;DHT22;59320;52.316;10.870;2023-05-02T06:55:45;11.60;99.90
70706;DHT22;59320;52.316;10.870;2023-05-02T06:58:13;11.40;99.90
70706;DHT22;59320;52.316;10.870;2023-05-02T07:00:42;11.50;99.90
70706;DHT22;59320;52.316;10.870;2023-05-02T07:03:09;11.30;99.90
70706;DHT22;59320;52.316;10.870;2023-05-02T07:05:37;11.20;99.90
70706;DHT22;59320;52.316;10.870;2023-05-02T07:08:04;11.10;99.90
70706;DHT22;59320;52.316;10.870;2023-05-02T07:10:32;11.20;99.90
70706;DHT22;59320;52.316;10.870;2023-05-02T07:12:59;11.20;99.90
70706;DHT22;59320;52.316;10.870;2023-05-02T07:15:26;11.30;99.90
70706;DHT22;59320;52.316;10.870;2023-05-02T07:17:55;11.50;99.90
70706;DHT22;59320;52.316;10.870;2023-05-02T07:20:22;11.50;99.90
70706;DHT22;59320;52.316;10.870;2023-05-02T07:22:49;11.60;99.90
70706;DHT22;59320;52.316;10.870;2023-05-02T07:25:16;11.50;99.40
70706;DHT22;59320;52.316;10.870;2023-05-02T07:27:43;11.30;99.90
70706;DHT22;59320;52.316;10.870;2023-05-02T07:30:11;11.60;99.60
70706;DHT22;59320;52.316;10.870;2023-05-02T07:32:38;11.70;99.30
70706;DHT22;59320;52.316;10.870;2023-05-02T07:35:07;11.60;98.70
70706;DHT22;59320;52.316;10.870;2023-05-02T07:37:34;11.50;99.20
70706;DHT22;59320;52.316;10.870;2023-05-02T07:40:02;11.20;99.30
70706;DHT22;59320;52.316;10.870;2023-05-02T07:42:29;11.20;99.90
70706;DHT22;59320;52.316;10.870;2023-05-02T07:44:57;11.20;99.90
70706;DHT22;59320;52.316;10.870;2023-05-02T07:47:24;11.20;99.80
70706;DHT22;59320;52.316;10.870;2023-05-02T07:49:52;11.20;99.30
70706;DHT22;59320;52.316;10.870;2023-05-02T07:52:21;11.10;98.90
70706;DHT22;59320;52.316;10.870;2023-05-02T07:54:48;11.00;99.10
70706;DHT22;59320;52.316;10.870;2023-05-02T07:57:15;11.10;98.90
70706;DHT22;59320;52.316;10.870;2023-05-02T07:59:42;11.00;98.20
70706;DHT22;59320;52.316;10.870;2023-05-02T08:02:09;10.80;98.50
70706;DHT22;59320;52.316;10.870;2023-05-02T08:04:38;10.90;98.70
70706;DHT22;59320;52.316;10.870;2023-05-02T08:07:05;11.10;98.60
70706;DHT22;59320;52.316;10.870;2023-05-02T08:09:34;11.00;97.70
70706;DHT22;59320;52.316;10.870;2023-05-02T08:12:01;11.00;98.20
70706;DHT22;59320;52.316;10.870;2023-05-02T08:14:28;11.00;98.60
70706;DHT22;59320;52.316;10.870;2023-05-02T08:16:55;10.80;98.80
70706;DHT22;59320;52.316;10.870;2023-05-02T08:19:22;10.70;99.20
70706;DHT22;59320;52.316;10.870;2023-05-02T08:21:49;10.60;98.20
70706;DHT22;59320;52.316;10.870;2023-05-02T08:24:16;10.80;98.20
70706;DHT22;59320;52.316;10.870;2023-05-02T08:26:45;11.00;97.00
70706;DHT22;59320;52.316;10.870;2023-05-02T08:29:12;11.10;96.70
70706;DHT22;59320;52.316;10.870;2023-05-02T08:31:39;11.10;96.60
70706;DHT22;59320;52.316;10.870;2023-05-02T08:34:06;11.40;96.30
70706;DHT22;59320;52.316;10.870;2023-05-02T08:36:33;11.30;95.80
70706;DHT22;59320;52.316;10.870;2023-05-02T08:39:01;11.30;95.00
70706;DHT22;59320;52.316;10.870;2023-05-02T08:41:29;11.50;94.80
70706;DHT22;59320;52.316;10.870;2023-05-02T08:43:58;11.80;94.10
70706;DHT22;59320;52.316;10.870;2023-05-02T08:46:26;11.80;93.40
70706;DHT22;59320;52.316;10.870;2023-05-02T08:48:54;11.80;92.40
70706;DHT22;59320;52.316;10.870;2023-05-02T08:51:23;11.90;92.60
70706;DHT22;59320;52.316;10.870;2023-05-02T08:53:51;12.20;91.50
70706;DHT22;59320;52.316;10.870;2023-05-02T08:56:21;12.00;91.60
70706;DHT22;59320;52.316;10.870;2023-05-02T08:58:49;11.80;91.80
70706;DHT22;59320;52.316;10.870;2023-05-02T09:01:22;11.60;92.00
70706;DHT22;59320;52.316;10.870;2023-05-02T09:03:49;11.50;91.80
70706;DHT22;59320;52.316;10.870;2023-05-02T09:06:18;11.70;92.10
70706;DHT22;59320;52.316;10.870;2023-05-02T09:08:47;11.70;91.60
70706;DHT22;59320;52.316;10.870;2023-05-02T09:11:15;11.60;91.60
70706;DHT22;59320;52.316;10.870;2023-05-02T09:13:44;11.60;92.30
70706;DHT22;59320;52.316;10.870;2023-05-02T09:16:13;12.00;91.70
70706;DHT22;59320;52.316;10.870;2023-05-02T09:18:44;12.20;90.90
70706;DHT22;59320;52.316;10.870;2023-05-02T09:21:13;12.10;90.70
70706;DHT22;59320;52.316;10.870;2023-05-02T09:23:42;12.10;90.50
70706;DHT22;59320;52.316;10.870;2023-05-02T09:26:10;12.20;90.80
70706;DHT22;59320;52.316;10.870;2023-05-02T09:28:40;12.20;90.70
70706;DHT22;59320;52.316;10.870;2023-05-02T09:31:08;12.30;90.20
70706;DHT22;59320;52.316;10.870;2023-05-02T09:33:36;12.30;88.00
70706;DHT22;59320;52.316;10.870;2023-05-02T09:36:05;12.30;89.20
70706;DHT22;59320;52.316;10.870;2023-05-02T09:38:33;12.40;87.80
70706;DHT22;59320;52.316;10.870;2023-05-02T09:41:01;12.50;86.10
70706;DHT22;59320;52.316;10.870;2023-05-02T09:43:30;12.30;86.40
70706;DHT22;59320;52.316;10.870;2023-05-02T09:45:59;12.40;87.10
70706;DHT22;59320;52.316;10.870;2023-05-02T09:48:27;12.40;85.00
70706;DHT22;59320;52.316;10.870;2023-05-02T09:50:55;12.50;84.30
70706;DHT22;59320;52.316;10.870;2023-05-02T09:53:25;12.40;84.50
70706;DHT22;59320;52.316;10.870;2023-05-02T09:56:00;12.40;83.70
70706;DHT22;59320;52.316;10.870;2023-05-02T09:58:27;12.10;84.60
70706;DHT22;59320;52.316;10.870;2023-05-02T10:00:55;12.20;83.50
70706;DHT22;59320;52.316;10.870;2023-05-02T10:03:23;12.20;81.40
70706;DHT22;59320;52.316;10.870;2023-05-02T10:05:51;12.10;81.60
70706;DHT22;59320;52.316;10.870;2023-05-02T10:08:19;12.30;81.90
70706;DHT22;59320;52.316;10.870;2023-05-02T10:10:50;12.20;83.20
70706;DHT22;59320;52.316;10.870;2023-05-02T10:13:19;11.90;83.90
70706;DHT22;59320;52.316;10.870;2023-05-02T10:15:58;11.90;84.30
70706;DHT22;59320;52.316;10.870;2023-05-02T10:18:29;11.80;83.10
70706;DHT22;59320;52.316;10.870;2023-05-02T10:21:05;11.90;82.60
70706;DHT22;59320;52.316;10.870;2023-05-02T10:23:34;11.70;82.30
70706;DHT22;59320;52.316;10.870;2023-05-02T10:26:04;11.60;80.20
70706;DHT22;59320;52.316;10.870;2023-05-02T10:28:31;11.70;81.30
70706;DHT22;59320;52.316;10.870;2023-05-02T10:30:59;12.10;80.80
70706;DHT22;59320;52.316;10.870;2023-05-02T10:33:27;12.60;79.30
70706;DHT22;59320;52.316;10.870;2023-05-02T10:35:56;12.80;77.30
70706;DHT22;59320;52.316;10.870;2023-05-02T10:38:23;13.00;76.90
70706;DHT22;59320;52.316;10.870;2023-05-02T10:40:53;12.90;76.70
70706;DHT22;59320;52.316;10.870;2023-05-02T10:43:26;13.00;75.70
70706;DHT22;59320;52.316;10.870;2023-05-02T10:45:53;12.50;76.40
70706;DHT22;59320;52.316;10.870;2023-05-02T10:48:22;12.50;77.20
70706;DHT22;59320;52.316;10.870;2023-05-02T10:50:51;12.20;76.90
70706;DHT22;59320;52.316;10.870;2023-05-02T10:53:26;12.20;78.00
70706;DHT22;59320;52.316;10.870;2023-05-02T10:56:14;12.10;77.80
70706;DHT22;59320;52.316;10.870;2023-05-02T10:58:43;12.50;76.80
70706;DHT22;59320;52.316;10.870;2023-05-02T11:01:35;12.60;76.20
70706;DHT22;59320;52.316;10.870;2023-05-02T11:04:06;12.90;74.70
70706;DHT22;59320;52.316;10.870;2023-05-02T11:06:35;12.80;74.60
70706;DHT22;59320;52.316;10.870;2023-05-02T11:09:31;12.40;74.90
70706;DHT22;59320;52.316;10.870;2023-05-02T11:12:02;12.20;76.60
70706;DHT22;59320;52.316;10.870;2023-05-02T11:14:45;12.20;77.80
70706;DHT22;59320;52.316;10.870;2023-05-02T11:17:16;12.60;75.80
70706;DHT22;59320;52.316;10.870;2023-05-02T11:23:22;12.70;74.10
70706;DHT22;59320;52.316;10.870;2023-05-02T11:25:52;12.70;74.10
70706;DHT22;59320;52.316;10.870;2023-05-02T11:28:42;12.80;73.60
70706;DHT22;59320;52.316;10.870;2023-05-02T11:34:41;13.40;71.10
70706;DHT22;59320;52.316;10.870;2023-05-02T11:37:13;13.30;72.60
70706;DHT22;59320;52.316;10.870;2023-05-02T11:39:40;13.70;70.90
70706;DHT22;59320;52.316;10.870;2023-05-02T11:42:07;13.80;69.50
70706;DHT22;59320;52.316;10.870;2023-05-02T11:44:56;13.90;69.00
70706;DHT22;59320;52.316;10.870;2023-05-02T11:47:23;13.90;68.80
70706;DHT22;59320;52.316;10.870;2023-05-02T11:49:53;14.10;69.60
70706;DHT22;59320;52.316;10.870;2023-05-02T11:52:21;13.90;68.10
70706;DHT22;59320;52.316;10.870;2023-05-02T11:54:48;13.30;69.30
70706;DHT22;59320;52.316;10.870;2023-05-02T11:57:16;13.10;70.80
70706;DHT22;59320;52.316;10.870;2023-05-02T11:59:50;13.30;69.20
70706;DHT22;59320;52.316;10.870;2023-05-02T12:02:17;13.30;69.10
70706;DHT22;59320;52.316;10.870;2023-05-02T12:04:45;13.50;69.30
70706;DHT22;59320;52.316;10.870;2023-05-02T12:07:13;13.70;70.70
70706;DHT22;59320;52.316;10.870;2023-05-02T12:09:50;13.90;68.90
70706;DHT22;59320;52.316;10.870;2023-05-02T12:12:19;14.00;68.10
70706;DHT22;59320;52.316;10.870;2023-05-02T12:14:46;13.80;67.30
70706;DHT22;59320;52.316;10.870;2023-05-02T12:17:13;13.80;66.90
70706;DHT22;59320;52.316;10.870;2023-05-02T12:19:41;13.60;66.80
70706;DHT22;59320;52.316;10.870;2023-05-02T12:22:09;13.60;65.90
70706;DHT22;59320;52.316;10.870;2023-05-02T12:24:39;13.50;66.10
70706;DHT22;59320;52.316;10.870;2023-05-02T12:27:09;13.50;67.20
70706;DHT22;59320;52.316;10.870;2023-05-02T12:29:37;13.80;66.80
70706;DHT22;59320;52.316;10.870;2023-05-02T12:32:04;13.90;64.80
70706;DHT22;59320;52.316;10.870;2023-05-02T12:34:32;14.00;66.30
70706;DHT22;59320;52.316;10.870;2023-05-02T12:37:00;14.20;64.60
70706;DHT22;59320;52.316;10.870;2023-05-02T12:39:34;14.20;64.00
70706;DHT22;59320;52.316;10.870;2023-05-02T12:42:08;14.30;63.80
70706;DHT22;59320;52.316;10.870;2023-05-02T12:44:36;14.30;62.90
70706;DHT22;59320;52.316;10.870;2023-05-02T12:47:05;14.10;63.80
70706;DHT22;59320;52.316;10.870;2023-05-02T12:49:46;14.30;63.60
70706;DHT22;59320;52.316;10.870;2023-05-02T12:52:14;14.10;63.50
70706;DHT22;59320;52.316;10.870;2023-05-02T12:54:41;14.10;63.80
70706;DHT22;59320;52.316;10.870;2023-05-02T12:57:09;14.40;65.10
70706;DHT22;59320;52.316;10.870;2023-05-02T12:59:36;14.90;61.50
70706;DHT22;59320;52.316;10.870;2023-05-02T13:02:05;15.60;61.00
70706;DHT22;59320;52.316;10.870;2023-05-02T13:04:34;16.60;59.30
70706;DHT22;59320;52.316;10.870;2023-05-02T13:07:01;17.40;55.90
70706;DHT22;59320;52.316;10.870;2023-05-02T13:09:28;17.80;53.40
70706;DHT22;59320;52.316;10.870;2023-05-02T13:11:55;18.10;52.10
70706;DHT22;59320;52.316;10.870;2023-05-02T13:14:25;17.60;53.10
70706;DHT22;59320;52.316;10.870;2023-05-02T13:16:52;17.10;53.70
70706;DHT22;59320;52.316;10.870;2023-05-02T13:19:19;16.90;54.20
70706;DHT22;59320;52.316;10.870;2023-05-02T13:21:47;16.90;53.80
70706;DHT22;59320;52.316;10.870;2023-05-02T13:24:14;16.50;53.30
70706;DHT22;59320;52.316;10.870;2023-05-02T13:26:42;16.50;54.00
70706;DHT22;59320;52.316;10.870;2023-05-02T13:29:09;16.00;54.20
70706;DHT22;59320;52.316;10.870;2023-05-02T13:31:38;16.10;53.60
70706;DHT22;59320;52.316;10.870;2023-05-02T13:34:05;16.20;54.70
70706;DHT22;59320;52.316;10.870;2023-05-02T13:36:32;16.80;53.10
70706;DHT22;59320;52.316;10.870;2023-05-02T13:38:59;17.00;50.00
70706;DHT22;59320;52.316;10.870;2023-05-02T13:41:26;17.20;51.20
70706;DHT22;59320;52.316;10.870;2023-05-02T13:43:53;17.20;49.00
70706;DHT22;59320;52.316;10.870;2023-05-02T13:46:21;16.80;48.90
70706;DHT22;59320;52.316;10.870;2023-05-02T13:48:50;16.70;51.30
70706;DHT22;59320;52.316;10.870;2023-05-02T13:51:17;16.20;51.10
70706;DHT22;59320;52.316;10.870;2023-05-02T13:53:44;15.80;51.50
70706;DHT22;59320;52.316;10.870;2023-05-02T13:56:11;15.70;52.50
70706;DHT22;59320;52.316;10.870;2023-05-02T13:58:38;15.30;51.30
70706;DHT22;59320;52.316;10.870;2023-05-02T14:01:05;15.30;52.90
70706;DHT22;59320;52.316;10.870;2023-05-02T14:03:32;15.20;53.00
70706;DHT22;59320;52.316;10.870;2023-05-02T14:06:01;15.10;53.30
70706;DHT22;59320;52.316;10.870;2023-05-02T14:08:28;15.10;53.80
70706;DHT22;59320;52.316;10.870;2023-05-02T14:10:55;15.40;53.00
70706;DHT22;59320;52.316;10.870;2023-05-02T14:13:22;15.50;51.20
70706;DHT22;59320;52.316;10.870;2023-05-02T14:15:49;15.50;52.00
70706;DHT22;59320;52.316;10.870;2023-05-02T14:18:16;15.70;51.40
70706;DHT22;59320;52.316;10.870;2023-05-02T14:20:44;15.70;50.60
70706;DHT22;59320;52.316;10.870;2023-05-02T14:23:13;15.70;50.30
70706;DHT22;59320;52.316;10.870;2023-05-02T14:25:39;16.00;49.60
70706;DHT22;59320;52.316;10.870;2023-05-02T14:28:07;16.00;49.10
70706;DHT22;59320;52.316;10.870;2023-05-02T14:30:33;16.30;49.70
70706;DHT22;59320;52.316;10.870;2023-05-02T14:33:01;16.60;49.10
70706;DHT22;59320;52.316;10.870;2023-05-02T14:35:28;16.80;47.90
70706;DHT22;59320;52.316;10.870;2023-05-02T14:37:55;17.30;48.60
70706;DHT22;59320;52.316;10.870;2023-05-02T14:40:23;17.70;47.50
70706;DHT22;59320;52.316;10.870;2023-05-02T14:42:50;17.00;46.20
70706;DHT22;59320;52.316;10.870;2023-05-02T14:45:17;16.80;46.10
70706;DHT22;59320;52.316;10.870;2023-05-02T14:47:44;16.40;48.20
70706;DHT22;59320;52.316;10.870;2023-05-02T14:50:11;15.70;49.80
70706;DHT22;59320;52.316;10.870;2023-05-02T14:52:38;15.50;51.20
70706;DHT22;59320;52.316;10.870;2023-05-02T14:55:06;15.70;50.70
70706;DHT22;59320;52.316;10.870;2023-05-02T14:57:35;15.60;50.50
70706;DHT22;59320;52.316;10.870;2023-05-02T15:00:02;15.40;50.60
70706;DHT22;59320;52.316;10.870;2023-05-02T15:02:30;15.10;50.60
70706;DHT22;59320;52.316;10.870;2023-05-02T15:04:57;15.20;51.40
70706;DHT22;59320;52.316;10.870;2023-05-02T15:07:24;15.40;51.10
70706;DHT22;59320;52.316;10.870;2023-05-02T15:09:51;15.10;50.10
70706;DHT22;59320;52.316;10.870;2023-05-02T15:12:18;15.20;51.00
70706;DHT22;59320;52.316;10.870;2023-05-02T15:14:46;17.30;48.90
70706;DHT22;59320;52.316;10.870;2023-05-02T15:17:14;17.20;46.50
70706;DHT22;59320;52.316;10.870;2023-05-02T15:19:41;18.60;45.90
70706;DHT22;59320;52.316;10.870;2023-05-02T15:22:08;19.30;43.80
70706;DHT22;59320;52.316;10.870;2023-05-02T15:24:35;18.20;45.20
70706;DHT22;59320;52.316;10.870;2023-05-02T15:27:02;17.20;46.90
70706;DHT22;59320;52.316;10.870;2023-05-02T15:29:29;17.30;48.00
70706;DHT22;59320;52.316;10.870;2023-05-02T15:32:01;18.30;45.00
70706;DHT22;59320;52.316;10.870;2023-05-02T15:34:28;19.70;40.90